Time;durP1;ratioP1;P1;durP2;ratioP2;P2;SDS_P1;SDS_P2;PMS_P1;PMS_P2;Temp;Humidity;BMP_temperature;BMP_pressure;BME280_temperature;BME280_humidity;BME280_pressure;Samples;Min_cycle;Max_cycle;Signal;HPM_P1;HPM_P2
2022/09/13 00:01:02;;;;;;;2.05;1.45;;;;;;;13.40;70.09;100638.11;1678888;84;25757;-72
2022/09/13 00:03:32;;;;;;;1.32;1.22;;;;;;;13.37;70.29;100647.00;1677864;84;25734;-72
2022/09/13 00:06:10;;;;;;;1.20;1.10;;;;;;;13.33;70.23;100639.72;1679006;85;25843;-72
2022/09/13 00:08:38;;;;;;;1.27;1.17;;;;;;;13.29;70.65;100636.48;1679767;84;27500;-72
2022/09/13 00:11:06;;;;;;;2.17;1.10;;;;;;;13.29;70.74;100641.05;1708649;82;25739;-72
2022/09/13 00:13:33;;;;;;;3.92;1.20;;;;;;;13.28;70.98;100632.60;1679016;84;25796;-72
2022/09/13 00:16:02;;;;;;;2.22;1.35;;;;;;;13.27;70.98;100632.25;1708928;83;25807;-72
2022/09/13 00:18:29;;;;;;;3.70;1.10;;;;;;;13.25;70.97;100627.02;1708611;83;25948;-72
2022/09/13 00:21:09;;;;;;;2.05;0.90;;;;;;;13.26;71.35;100627.85;1679331;84;28046;-72
2022/09/13 00:23:37;;;;;;;1.05;1.05;;;;;;;13.28;71.32;100627.20;1659648;85;25812;-72
2022/09/13 00:26:16;;;;;;;1.52;1.10;;;;;;;13.25;71.42;100628.86;1680460;85;25747;-72
2022/09/13 00:28:44;;;;;;;1.70;1.15;;;;;;;13.21;71.85;100627.48;1680392;85;25918;-72
2022/09/13 00:31:11;;;;;;;1.77;1.20;;;;;;;13.19;71.62;100629.49;1665717;84;25754;-71
2022/09/13 00:33:38;;;;;;;1.42;1.07;;;;;;;13.17;72.07;100627.45;1676480;84;27638;-72
2022/09/13 00:36:09;;;;;;;1.27;1.17;;;;;;;13.17;72.11;100624.74;1676544;84;25800;-71
2022/09/13 00:38:37;;;;;;;5.10;1.00;;;;;;;13.14;72.23;100627.26;1693032;84;26206;-72
2022/09/13 00:41:07;;;;;;;2.45;1.10;;;;;;;13.17;72.05;100622.05;1677943;84;25786;-71
2022/09/13 00:43:49;;;;;;;1.45;1.12;;;;;;;13.19;72.36;100617.34;1675899;84;25527;-71
2022/09/13 00:46:24;;;;;;;1.72;1.30;;;;;;;13.14;72.58;100613.23;1677544;84;27492;-71
2022/09/13 00:48:56;;;;;;;1.20;1.10;;;;;;;13.17;72.24;100614.80;1705163;84;25741;-72
2022/09/13 00:51:23;;;;;;;2.08;1.37;;;;;;;13.20;72.64;100619.87;1705019;84;25695;-71
2022/09/13 00:53:54;;;;;;;2.70;1.45;;;;;;;13.18;72.74;100615.12;1704961;83;26509;-72
2022/09/13 00:56:32;;;;;;;1.57;1.20;;;;;;;13.16;72.62;100614.45;1704275;84;25466;-71
2022/09/13 00:59:22;;;;;;;1.37;1.25;;;;;;;13.20;72.46;100610.94;1704779;84;27490;-71
2022/09/13 01:01:54;;;;;;;2.37;1.10;;;;;;;13.24;72.47;100611.81;1681265;85;25789;-69
2022/09/13 01:04:25;;;;;;;1.40;1.12;;;;;;;13.22;72.91;100604.88;1688033;84;25762;-71
2022/09/13 01:06:56;;;;;;;1.22;1.12;;;;;;;13.21;72.64;100608.58;1693313;83;26477;-71
2022/09/13 01:09:24;;;;;;;1.20;0.98;;;;;;;13.22;72.77;100614.33;1693241;84;25778;-71
2022/09/13 01:12:20;;;;;;;1.00;0.90;;;;;;;13.20;72.87;100604.18;1693256;84;28219;-72
2022/09/13 01:14:49;;;;;;;1.27;1.10;;;;;;;13.23;72.84;100606.55;1626972;84;25895;-70
2022/09/13 01:17:16;;;;;;;5.60;1.07;;;;;;;13.29;73.03;100601.88;1693322;84;25756;-71
2022/09/13 01:19:43;;;;;;;1.30;1.15;;;;;;;13.27;72.85;100597.14;1693063;84;25836;-70
2022/09/13 01:22:30;;;;;;;1.30;1.02;;;;;;;13.22;72.93;100598.12;1693121;84;27451;-71
2022/09/13 01:25:27;;;;;;;1.40;1.30;;;;;;;13.20;73.04;100604.18;1703993;83;28237;-71
2022/09/13 01:28:34;;;;;;;0.90;0.90;;;;;;;13.20;72.86;100596.08;1679640;83;25758;-71
2022/09/13 01:31:18;;;;;;;1.30;1.10;;;;;;;13.24;73.03;100600.14;1705804;83;25693;-72
2022/09/13 01:34:00;;;;;;;1.75;1.10;;;;;;;13.21;73.32;100592.38;1723045;83;26297;-72
2022/09/13 01:36:50;;;;;;;1.37;1.27;;;;;;;13.12;73.87;100598.20;1705688;83;25803;-72
2022/09/13 01:39:41;;;;;;;1.22;1.02;;;;;;;13.09;73.87;100594.45;1688165;83;27515;-72
2022/09/13 01:42:20;;;;;;;1.67;1.10;;;;;;;13.13;73.77;100595.33;1726193;83;25481;-71
2022/09/13 01:45:17;;;;;;;1.12;1.02;;;;;;;13.15;73.67;100604.66;1710610;83;25725;-71
2022/09/13 01:48:03;;;;;;;3.25;1.57;;;;;;;13.10;73.89;100598.38;1725725;82;25807;-71
2022/09/13 01:50:48;;;;;;;1.82;1.30;;;;;;;13.05;74.52;100599.33;1703442;82;26076;-71
2022/09/13 01:53:45;;;;;;;3.90;1.40;;;;;;;13.02;74.41;100591.56;1680848;84;27885;-71
2022/09/13 01:56:35;;;;;;;3.22;1.40;;;;;;;13.00;74.54;100587.64;1755960;81;25778;-70
2022/09/13 01:59:13;;;;;;;1.90;1.30;;;;;;;13.01;74.66;100591.20;1745565;81;25545;-69
2022/09/13 02:01:54;;;;;;;1.50;1.37;;;;;;;13.04;74.44;100585.99;1756171;81;27990;-71
2022/09/13 02:04:28;;;;;;;1.35;1.25;;;;;;;13.08;74.64;100578.77;1754098;81;25877;-72
2022/09/13 02:07:23;;;;;;;2.60;1.22;;;;;;;13.07;74.58;100582.47;1755109;81;27481;-70
2022/09/13 02:10:04;;;;;;;2.77;1.42;;;;;;;13.07;74.73;100593.79;1756127;81;25461;-72
2022/09/13 02:12:35;;;;;;;1.55;1.40;;;;;;;13.04;75.32;100579.23;1755278;81;25746;-72
2022/09/13 02:15:10;;;;;;;3.80;1.32;;;;;;;13.07;75.37;100586.52;1756161;81;25810;-72
2022/09/13 02:17:42;;;;;;;2.05;1.20;;;;;;;13.09;76.11;100580.47;1756475;81;25814;-71
2022/09/13 02:20:20;;;;;;;1.32;1.22;;;;;;;13.10;76.07;100586.22;1755515;80;27486;-71
2022/09/13 02:22:52;;;;;;;1.35;1.25;;;;;;;13.07;76.64;100586.52;1754888;81;25757;-72
2022/09/13 02:25:22;;;;;;;4.67;2.58;;;;;;;13.03;76.84;100583.81;1720258;81;25804;-71
2022/09/13 02:27:57;;;;;;;3.15;2.10;;;;;;;12.94;77.40;100588.80;1687315;83;26507;-71
2022/09/13 02:30:22;;;;;;;1.80;1.70;;;;;;;12.84;78.09;100587.03;1709872;83;25539;-72
2022/09/13 02:33:03;;;;;;;2.47;1.70;;;;;;;12.81;77.64;100581.09;1680504;85;28127;-71
2022/09/13 02:35:35;;;;;;;2.30;1.90;;;;;;;12.80;78.15;100578.88;1711086;81;25811;-71
2022/09/13 02:38:09;;;;;;;1.82;1.72;;;;;;;12.79;78.78;100575.83;1709645;83;25703;-72
2022/09/13 02:40:45;;;;;;;5.90;1.92;;;;;;;12.76;78.77;100578.00;1688782;84;25798;-72
2022/09/13 02:43:20;;;;;;;2.62;1.62;;;;;;;12.74;78.94;100571.90;1712957;83;26122;-72
2022/09/13 02:45:58;;;;;;;1.67;1.25;;;;;;;12.73;79.14;100569.72;1722092;83;27504;-72
2022/09/13 02:48:49;;;;;;;1.67;1.57;;;;;;;12.73;78.99;100572.41;1718786;83;25819;-71
2022/09/13 02:51:39;;;;;;;2.20;1.60;;;;;;;12.74;79.34;100571.90;1719350;83;25797;-71
2022/09/13 02:54:27;;;;;;;1.57;1.47;;;;;;;12.73;79.44;100572.93;1680714;81;26468;-72
2022/09/13 02:57:08;;;;;;;1.90;1.45;;;;;;;12.76;79.55;100576.16;1726019;83;25702;-71
2022/09/13 02:59:35;;;;;;;3.90;1.32;;;;;;;12.73;79.43;100571.58;1730841;81;27590;-70
2022/09/13 03:02:13;;;;;;;2.72;1.62;;;;;;;12.70;79.51;100572.72;1704896;83;25713;-70
2022/09/13 03:04:40;;;;;;;1.92;1.70;;;;;;;12.73;79.29;100569.72;1696582;84;25685;-71
2022/09/13 03:07:12;;;;;;;3.00;1.50;;;;;;;12.80;79.07;100569.95;1697221;83;25731;-71
2022/09/13 03:09:48;;;;;;;1.50;1.40;;;;;;;12.82;79.12;100575.53;1697288;84;26008;-72
2022/09/13 03:12:48;;;;;;;1.50;1.40;;;;;;;12.83;79.42;100566.44;1697017;84;27467;-71
2022/09/13 03:15:40;;;;;;;4.17;2.00;;;;;;;12.83;79.44;100571.83;1696945;84;25728;-71
2022/09/13 03:18:27;;;;;;;2.20;2.00;;;;;;;12.82;79.28;100574.19;1697134;83;25754;-72
2022/09/13 03:21:04;;;;;;;6.10;1.67;;;;;;;12.82;79.32;100570.13;1690660;83;26660;-72
2022/09/13 03:23:49;;;;;;;6.95;3.05;;;;;;;12.84;79.09;100574.88;1717159;83;25706;-72
2022/09/13 03:26:26;;;;;;;2.47;2.10;;;;;;;12.83;79.04;100575.88;1653750;83;29614;-71
2022/09/13 03:29:17;;;;;;;3.80;2.00;;;;;;;12.87;78.80;100569.66;1701180;83;25450;-73
2022/09/13 03:32:34;;;;;;;4.17;2.47;;;;;;;12.89;79.20;100575.77;1723250;83;25859;-70
2022/09/13 03:35:26;;;;;;;1.82;1.60;;;;;;;12.83;79.24;100578.58;1723441;83;25854;-72
2022/09/13 03:38:13;;;;;;;1.90;1.65;;;;;;;12.84;79.36;100581.62;1723315;81;25796;-72
2022/09/13 03:40:53;;;;;;;2.25;2.05;;;;;;;12.81;79.36;100577.88;1694389;83;27491;-70
2022/09/13 03:43:40;;;;;;;3.08;2.80;;;;;;;12.77;79.77;100585.09;1709309;82;26164;-72
2022/09/13 03:46:11;;;;;;;5.80;2.45;;;;;;;12.76;80.16;100581.56;1710414;83;25751;-71
2022/09/13 03:48:41;;;;;;;5.55;1.90;;;;;;;12.72;80.06;100573.41;1714045;83;26034;-71
2022/09/13 03:51:10;;;;;;;2.00;1.65;;;;;;;12.78;80.04;100581.39;1714059;82;25779;-71
2022/09/13 03:53:47;;;;;;;2.85;2.33;;;;;;;12.79;80.14;100584.45;1714130;82;27643;-71
2022/09/13 03:56:18;;;;;;;4.35;2.22;;;;;;;12.80;80.01;100580.75;1713682;82;25782;-71
2022/09/13 03:58:46;;;;;;;4.17;1.85;;;;;;;12.81;79.57;100585.98;1714314;82;26301;-71
2022/09/13 04:01:20;;;;;;;3.65;2.47;;;;;;;12.78;79.70;100581.39;1709977;82;25794;-71
2022/09/13 04:03:48;;;;;;;4.33;2.20;;;;;;;12.76;79.92;100581.56;1714617;82;25807;-71
2022/09/13 04:06:15;;;;;;;5.85;2.05;;;;;;;12.78;79.70;100584.09;1713852;82;27574;-71
2022/09/13 04:08:43;;;;;;;3.85;2.17;;;;;;;12.78;80.19;100581.39;1714068;82;25851;-71
2022/09/13 04:11:10;;;;;;;2.40;2.15;;;;;;;12.80;79.83;100578.05;1713864;83;25755;-70
2022/09/13 04:13:37;;;;;;;5.58;2.58;;;;;;;12.79;80.22;100589.84;1714303;83;25815;-72
2022/09/13 04:16:06;;;;;;;4.83;3.60;;;;;;;12.78;79.94;100578.19;1714165;82;25834;-70
2022/09/13 04:18:34;;;;;;;5.92;4.55;;;;;;;12.81;79.85;100582.45;1714338;82;27575;-70
2022/09/13 04:21:03;;;;;;;6.58;2.90;;;;;;;12.84;79.66;100584.33;1714090;82;25829;-71
2022/09/13 04:23:30;;;;;;;7.45;3.00;;;;;;;12.82;79.62;100578.23;1714395;82;26242;-70
2022/09/13 04:26:03;;;;;;;7.35;3.60;;;;;;;12.77;80.07;100587.31;1712502;83;25967;-71
2022/09/13 04:28:30;;;;;;;6.12;3.15;;;;;;;12.74;79.94;100582.70;1713000;83;25883;-71
2022/09/13 04:30:56;;;;;;;4.70;3.55;;;;;;;12.79;79.80;100588.50;1712636;83;27596;-71
2022/09/13 04:33:23;;;;;;;5.00;3.62;;;;;;;12.81;79.84;100587.84;1713193;82;25842;-71
2022/09/13 04:35:58;;;;;;;4.17;3.77;;;;;;;12.83;80.13;100589.37;1713620;82;25770;-70
2022/09/13 04:38:26;;;;;;;5.28;3.75;;;;;;;12.81;80.12;100585.14;1713460;82;25824;-69
2022/09/13 04:40:55;;;;;;;8.30;3.90;;;;;;;12.80;80.35;100585.63;1711884;83;25756;-70
2022/09/13 04:43:23;;;;;;;12.93;5.35;;;;;;;12.80;80.09;100584.80;1711596;83;27769;-71
2022/09/13 04:45:51;;;;;;;6.87;3.98;;;;;;;12.81;80.00;100585.14;1711001;83;25829;-69
2022/09/13 04:48:18;;;;;;;4.75;4.20;;;;;;;12.81;80.26;100599.48;1707384;83;25907;-70
2022/09/13 04:50:46;;;;;;;7.83;3.90;;;;;;;12.82;80.29;100590.86;1711273;83;26738;-70
2022/09/13 04:53:13;;;;;;;7.20;4.28;;;;;;;12.84;79.90;100584.33;1711316;83;25798;-70
2022/09/13 04:55:40;;;;;;;8.13;4.50;;;;;;;12.87;79.87;100591.27;1712251;82;27725;-70
2022/09/13 04:58:07;;;;;;;6.83;4.87;;;;;;;12.89;79.77;100588.40;1735713;82;25822;-70
2022/09/13 05:00:34;;;;;;;6.30;4.30;;;;;;;12.96;79.66;100588.98;1741526;82;26422;-70
2022/09/13 05:03:01;;;;;;;5.83;3.95;;;;;;;13.05;79.51;100586.34;1703610;83;26668;-70
2022/09/13 05:05:28;;;;;;;6.40;4.60;;;;;;;13.09;79.18;100585.00;1711867;83;25799;-70
2022/09/13 05:07:55;;;;;;;6.95;4.35;;;;;;;13.11;78.88;100586.56;1711384;83;28392;-70
2022/09/13 05:10:22;;;;;;;8.13;4.37;;;;;;;13.10;78.82;100590.75;1711372;83;25830;-69
2022/09/13 05:12:49;;;;;;;7.45;4.75;;;;;;;13.17;78.84;100595.90;1711349;83;25815;-71
2022/09/13 05:15:16;;;;;;;5.83;4.30;;;;;;;13.09;78.96;100598.51;1711225;83;26755;-70
2022/09/13 05:17:43;;;;;;;12.03;5.00;;;;;;;13.07;78.75;100593.79;1711518;82;25788;-71
2022/09/13 05:20:10;;;;;;;6.62;4.55;;;;;;;13.14;78.96;100599.73;1711536;83;27427;-70
2022/09/13 05:22:37;;;;;;;11.10;5.20;;;;;;;13.25;78.83;100597.30;1711346;83;25776;-70
2022/09/13 05:25:07;;;;;;;10.28;4.83;;;;;;;13.26;78.52;100596.78;1711308;82;25761;-71
2022/09/13 05:27:34;;;;;;;11.33;4.83;;;;;;;13.31;78.42;100591.26;1725845;81;25845;-70
2022/09/13 05:30:01;;;;;;;9.13;5.37;;;;;;;13.33;78.35;100594.31;1700318;82;25811;-71
2022/09/13 05:32:27;;;;;;;11.90;5.58;;;;;;;13.40;78.27;100599.45;1686153;83;26820;-72
2022/09/13 05:34:54;;;;;;;8.50;4.65;;;;;;;13.46;78.06;100605.07;1683318;84;25809;-71
2022/09/13 05:37:21;;;;;;;6.58;4.90;;;;;;;13.41;77.65;100601.14;1689885;84;25651;-71
2022/09/13 05:39:48;;;;;;;10.68;5.33;;;;;;;13.37;77.84;100614.09;1693486;83;26445;-70
2022/09/13 05:42:15;;;;;;;5.25;4.37;;;;;;;13.38;77.78;100602.77;1725183;83;25740;-72
2022/09/13 05:44:42;;;;;;;6.47;4.40;;;;;;;13.41;77.89;100610.60;1710432;83;27563;-72
2022/09/13 05:47:09;;;;;;;5.30;4.35;;;;;;;13.43;77.78;100609.95;1724886;83;25749;-72
2022/09/13 05:49:36;;;;;;;9.60;4.92;;;;;;;13.45;77.66;100610.61;1722651;83;25580;-69
2022/09/13 05:52:03;;;;;;;11.20;4.42;;;;;;;13.46;77.66;100610.47;1713468;82;25846;-70
2022/09/13 05:54:30;;;;;;;10.88;4.87;;;;;;;13.49;77.42;100609.82;1710350;82;25534;-72
2022/09/13 05:56:57;;;;;;;24.70;5.00;;;;;;;13.46;77.35;100618.58;1709755;83;28380;-71
2022/09/13 05:59:24;;;;;;;7.35;4.37;;;;;;;13.50;77.30;100622.30;1709895;82;25884;-70
2022/09/13 06:01:51;;;;;;;8.23;4.83;;;;;;;13.52;77.23;100618.45;1709935;83;25806;-71
2022/09/13 06:04:18;;;;;;;12.60;5.75;;;;;;;13.52;77.09;100622.50;1709950;82;25858;-71
2022/09/13 06:06:45;;;;;;;10.43;5.10;;;;;;;13.50;77.04;100620.45;1709788;83;25791;-70
2022/09/13 06:09:12;;;;;;;5.83;4.83;;;;;;;13.48;77.00;100635.14;1709683;82;27481;-70
2022/09/13 06:11:39;;;;;;;9.33;4.58;;;;;;;13.41;76.99;100630.35;1710678;82;25800;-73
2022/09/13 06:14:06;;;;;;;10.30;4.67;;;;;;;13.41;77.28;100626.81;1710187;83;25788;-72
2022/09/13 06:16:33;;;;;;;11.88;4.97;;;;;;;13.48;76.94;100631.09;1710327;83;26537;-71
2022/09/13 06:19:01;;;;;;;6.30;4.50;;;;;;;13.53;77.08;100634.15;1710122;83;25812;-72
2022/09/13 06:21:28;;;;;;;14.75;4.92;;;;;;;13.55;76.86;100630.27;1710431;83;27461;-72
2022/09/13 06:23:55;;;;;;;8.40;4.50;;;;;;;13.57;76.85;100645.84;1710594;83;25957;-72
2022/09/13 06:26:25;;;;;;;5.90;3.90;;;;;;;13.60;76.71;100632.50;1725416;83;25763;-72
2022/09/13 06:28:55;;;;;;;15.88;5.12;;;;;;;13.66;76.53;100641.83;1712827;83;25809;-72
2022/09/13 06:31:26;;;;;;;15.20;4.70;;;;;;;13.69;76.41;100645.58;1725394;83;25818;-72
2022/09/13 06:34:01;;;;;;;10.40;5.00;;;;;;;13.77;76.36;100636.16;1712803;83;27539;-72
2022/09/13 06:36:28;;;;;;;6.95;4.50;;;;;;;13.85;76.02;100640.77;1725288;83;25913;-72
2022/09/13 06:38:55;;;;;;;4.97;4.30;;;;;;;13.93;75.79;100643.00;1712484;83;25671;-72
2022/09/13 06:41:25;;;;;;;6.22;4.05;;;;;;;14.00;75.58;100641.86;1694013;83;26198;-71
2022/09/13 06:43:58;;;;;;;11.65;6.40;;;;;;;14.09;74.97;100638.66;1738595;81;25705;-71
2022/09/13 06:46:29;;;;;;;4.95;4.22;;;;;;;14.03;74.06;100644.22;1713463;82;27471;-69
2022/09/13 06:49:05;;;;;;;10.23;4.55;;;;;;;14.14;73.94;100643.59;1707713;82;26539;-67
2022/09/13 06:51:34;;;;;;;7.05;4.80;;;;;;;14.16;74.01;100645.15;1709920;82;25799;-70
2022/09/13 06:54:03;;;;;;;7.70;4.28;;;;;;;14.18;73.55;100644.97;1713127;82;25877;-68
2022/09/13 06:56:33;;;;;;;11.05;4.25;;;;;;;14.22;73.71;100658.02;1736642;82;26272;-70
2022/09/13 06:59:05;;;;;;;6.80;4.37;;;;;;;14.25;73.15;100640.59;1730294;82;27533;-69
2022/09/13 07:01:36;;;;;;;5.45;4.58;;;;;;;14.33;72.65;100647.91;1715706;82;26638;-70
2022/09/13 07:04:07;;;;;;;9.68;4.83;;;;;;;14.31;72.89;100641.80;1717986;82;25774;-72
2022/09/13 07:06:38;;;;;;;16.87;5.40;;;;;;;14.32;72.77;100651.10;1704706;84;26457;-71
2022/09/13 07:09:10;;;;;;;8.30;5.37;;;;;;;14.26;72.60;100655.83;1704483;84;25815;-71
2022/09/13 07:11:39;;;;;;;6.95;5.12;;;;;;;14.18;72.52;100653.92;1704442;83;28170;-70
2022/09/13 07:14:07;;;;;;;8.00;5.00;;;;;;;14.07;72.70;100656.42;1704352;84;25858;-70
2022/09/13 07:16:37;;;;;;;6.17;4.17;;;;;;;14.06;73.03;100649.83;1704635;84;25763;-70
2022/09/13 07:19:09;;;;;;;6.78;4.80;;;;;;;14.07;73.24;100648.30;1704505;83;25794;-70
2022/09/13 07:21:36;;;;;;;5.15;4.35;;;;;;;14.13;73.24;100657.63;1704583;84;25819;-70
2022/09/13 07:24:05;;;;;;;12.20;4.90;;;;;;;14.22;73.29;100651.73;1705580;83;27475;-69
2022/09/13 07:26:33;;;;;;;8.90;4.58;;;;;;;14.24;72.99;100661.89;1709391;83;25937;-70
2022/09/13 07:29:04;;;;;;;7.35;4.35;;;;;;;14.19;72.86;100663.73;1709465;83;25786;-70
2022/09/13 07:31:38;;;;;;;8.68;4.35;;;;;;;14.23;73.02;100662.41;1706101;82;26192;-70
2022/09/13 07:34:17;;;;;;;5.90;3.77;;;;;;;14.28;73.08;100662.41;1704610;82;25756;-70
2022/09/13 07:36:45;;;;;;;10.88;3.50;;;;;;;14.27;72.93;100665.64;1720898;82;27330;-70
2022/09/13 07:39:14;;;;;;;4.60;3.87;;;;;;;14.21;73.03;100670.33;1728533;82;25784;-66
2022/09/13 07:41:42;;;;;;;4.60;3.40;;;;;;;14.27;73.65;100664.77;1692913;82;25840;-68
2022/09/13 07:44:11;;;;;;;7.60;2.95;;;;;;;14.38;73.96;100677.53;1733173;82;25847;-71
2022/09/13 07:46:40;;;;;;;2.95;2.40;;;;;;;14.47;73.47;100681.09;1717001;82;25779;-73
2022/09/13 07:49:07;;;;;;;5.97;2.30;;;;;;;14.62;73.21;100681.31;1706600;82;27486;-70
2022/09/13 07:51:38;;;;;;;7.92;2.20;;;;;;;14.70;72.34;100676.47;1704512;82;25820;-72
2022/09/13 07:54:10;;;;;;;3.08;2.25;;;;;;;14.83;72.15;100665.98;1704779;84;25871;-73
2022/09/13 07:56:40;;;;;;;7.33;1.92;;;;;;;14.97;71.28;100672.61;1704560;83;25861;-73
2022/09/13 07:59:13;;;;;;;4.25;2.50;;;;;;;15.01;71.31;100669.05;1716917;82;25803;-74
2022/09/13 08:01:44;;;;;;;3.52;2.55;;;;;;;15.11;71.35;100677.01;1734032;82;28248;-72
2022/09/13 08:04:18;;;;;;;7.03;2.30;;;;;;;15.18;71.33;100672.63;1719141;82;25814;-73
2022/09/13 08:06:46;;;;;;;5.20;2.45;;;;;;;15.14;70.23;100686.16;1704393;82;25739;-69
2022/09/13 08:09:14;;;;;;;4.20;1.90;;;;;;;14.99;70.45;100680.06;1733585;82;26517;-73
2022/09/13 08:11:46;;;;;;;3.37;2.20;;;;;;;15.04;70.88;100686.34;1728052;82;25507;-72
2022/09/13 08:14:15;;;;;;;4.05;2.12;;;;;;;15.03;70.36;100692.77;1720071;82;27853;-74
2022/09/13 08:16:43;;;;;;;7.33;1.75;;;;;;;14.95;70.41;100688.17;1726817;81;25668;-73
2022/09/13 08:19:14;;;;;;;3.22;2.20;;;;;;;14.99;70.69;100692.75;1723272;82;25866;-72
2022/09/13 08:21:42;;;;;;;3.12;2.05;;;;;;;14.98;70.47;100685.14;1704067;82;25949;-73
2022/09/13 08:24:16;;;;;;;5.22;1.77;;;;;;;14.97;70.21;100688.86;1695483;83;25819;-73
2022/09/13 08:26:45;;;;;;;2.98;2.35;;;;;;;14.97;70.12;100689.38;1696557;82;27912;-73
2022/09/13 08:29:13;;;;;;;3.27;2.10;;;;;;;14.91;69.69;100685.48;1702799;82;26163;-74
2022/09/13 08:31:41;;;;;;;2.22;1.82;;;;;;;14.97;69.89;100688.03;1711466;82;25821;-71
2022/09/13 08:34:14;;;;;;;4.15;2.20;;;;;;;14.99;69.88;100679.20;1717334;82;25920;-71
2022/09/13 08:36:42;;;;;;;2.92;1.85;;;;;;;14.95;69.52;100690.05;1717141;82;26364;-72
2022/09/13 08:39:15;;;;;;;6.87;2.05;;;;;;;14.80;69.50;100691.20;1707751;82;27420;-72
2022/09/13 08:41:53;;;;;;;3.72;2.00;;;;;;;14.85;70.06;100691.05;1715002;82;25969;-73
2022/09/13 08:44:37;;;;;;;2.77;2.33;;;;;;;15.08;70.20;100686.84;1701914;82;25800;-73
2022/09/13 08:47:23;;;;;;;5.47;2.25;;;;;;;15.23;68.98;100685.67;1701661;83;26753;-74
2022/09/13 08:50:05;;;;;;;4.72;2.30;;;;;;;15.29;68.65;100677.69;1702558;83;25831;-73
2022/09/13 08:53:00;;;;;;;3.35;2.17;;;;;;;15.40;68.76;100681.08;1674019;85;28386;-73
2022/09/13 08:55:47;;;;;;;5.12;1.92;;;;;;;15.54;67.96;100676.84;1704022;82;25717;-72
2022/09/13 08:58:36;;;;;;;4.92;2.25;;;;;;;15.70;67.25;100682.23;1698693;84;25827;-73
2022/09/13 09:01:28;;;;;;;10.15;2.42;;;;;;;15.92;66.75;100677.98;1696063;84;25754;-74
2022/09/13 09:04:27;;;;;;;4.92;2.10;;;;;;;16.02;65.98;100668.80;1695909;84;25837;-73
2022/09/13 09:07:20;;;;;;;3.87;3.00;;;;;;;15.97;64.97;100673.38;1700318;82;27515;-73
2022/09/13 09:10:05;;;;;;;2.40;2.10;;;;;;;16.00;65.05;100665.44;1669198;82;25746;-72
2022/09/13 09:12:46;;;;;;;2.65;2.10;;;;;;;16.01;64.96;100670.67;1713255;82;26849;-71
2022/09/13 09:15:34;;;;;;;5.03;2.10;;;;;;;16.22;64.13;100666.02;1702489;82;26466;-74
2022/09/13 09:18:28;;;;;;;6.35;2.75;;;;;;;16.84;62.96;100658.05;1703239;82;25771;-73
2022/09/13 09:20:58;;;;;;;3.30;2.72;;;;;;;17.24;61.63;100670.19;1694289;82;27504;-73
2022/09/13 09:23:53;;;;;;;2.45;2.25;;;;;;;17.03;60.15;100673.05;1721818;82;25738;-74
2022/09/13 09:26:25;;;;;;;2.45;1.98;;;;;;;16.88;60.74;100667.02;1674214;85;25755;-72
2022/09/13 09:29:01;;;;;;;6.87;1.98;;;;;;;17.09;60.92;100670.95;1677332;82;25803;-74
2022/09/13 09:31:43;;;;;;;2.47;2.15;;;;;;;17.14;60.42;100671.27;1703371;82;25724;-73
2022/09/13 09:34:41;;;;;;;2.42;1.98;;;;;;;17.26;60.43;100670.85;1685392;84;27548;-73
2022/09/13 09:37:13;;;;;;;2.45;1.90;;;;;;;17.25;60.29;100671.88;1707592;82;25794;-73
2022/09/13 09:39:40;;;;;;;5.55;2.02;;;;;;;17.07;59.57;100673.53;1702006;82;25726;-73
2022/09/13 09:42:17;;;;;;;4.92;1.70;;;;;;;16.94;59.63;100689.95;1704557;82;26463;-72
2022/09/13 09:44:52;;;;;;;5.75;1.90;;;;;;;16.77;59.66;100678.30;1702629;83;25653;-72
2022/09/13 09:47:26;;;;;;;2.12;1.72;;;;;;;16.61;60.19;100682.47;1702682;82;27547;-72
2022/09/13 09:50:08;;;;;;;3.50;1.95;;;;;;;16.56;60.09;100687.91;1701965;82;26737;-74
2022/09/13 09:53:13;;;;;;;3.85;2.05;;;;;;;16.54;60.08;100683.16;1702213;84;25632;-73
2022/09/13 09:55:52;;;;;;;2.70;1.90;;;;;;;16.86;60.39;100670.92;1715131;81;25792;-74
2022/09/13 09:58:39;;;;;;;3.08;2.10;;;;;;;17.27;58.55;100677.95;1692982;83;25948;-73
2022/09/13 10:01:17;;;;;;;2.55;1.82;;;;;;;17.24;57.82;100675.09;1693498;83;27477;-74
2022/09/13 10:04:08;;;;;;;2.05;1.82;;;;;;;17.35;58.19;100686.04;1692232;83;25894;-74
2022/09/13 10:06:39;;;;;;;3.75;1.70;;;;;;;17.57;58.40;100675.32;1697010;84;25650;-73
2022/09/13 10:09:16;;;;;;;2.15;1.90;;;;;;;17.61;58.04;100684.28;1696714;83;25880;-73
2022/09/13 10:11:55;;;;;;;2.77;1.57;;;;;;;17.44;56.94;100680.03;1697072;83;25708;-73
2022/09/13 10:14:41;;;;;;;5.45;1.90;;;;;;;17.25;57.56;100694.98;1685420;83;27557;-74
2022/09/13 10:17:26;;;;;;;2.08;1.60;;;;;;;17.12;58.06;100695.59;1746184;81;25779;-74
2022/09/13 10:20:02;;;;;;;5.80;1.40;;;;;;;17.07;57.67;100687.98;1720407;81;25779;-73
2022/09/13 10:22:32;;;;;;;10.35;1.50;;;;;;;17.95;56.38;100679.36;1615917;83;26431;-73
2022/09/13 10:25:25;;;;;;;2.77;1.77;;;;;;;18.44;55.16;100680.67;1657375;83;27567;-74
2022/09/13 10:27:56;;;;;;;4.87;2.30;;;;;;;18.35;54.57;100700.34;1730484;82;26847;-74
2022/09/13 10:30:46;;;;;;;3.37;2.05;;;;;;;17.97;55.79;100691.77;1723817;81;25772;-73
2022/09/13 10:33:38;;;;;;;4.47;2.30;;;;;;;18.14;56.24;100691.58;1713093;83;25721;-74
2022/09/13 10:36:17;;;;;;;3.13;2.40;;;;;;;18.40;56.11;100695.19;1717543;81;25800;-73
2022/09/13 10:38:57;;;;;;;2.77;1.92;;;;;;;19.13;54.53;100694.34;1717383;81;25816;-74
2022/09/13 10:41:28;;;;;;;3.45;2.10;;;;;;;19.42;51.35;100694.38;1721039;83;28090;-74
2022/09/13 10:44:02;;;;;;;2.00;1.80;;;;;;;19.78;51.84;100686.08;1698762;83;25762;-73
2022/09/13 10:46:34;;;;;;;2.80;1.57;;;;;;;20.22;49.97;100677.75;1663535;86;26036;-74
2022/09/13 10:49:01;;;;;;;3.27;2.20;;;;;;;20.62;49.86;100676.03;1696286;83;25771;-76
2022/09/13 10:51:36;;;;;;;2.35;1.60;;;;;;;20.90;47.56;100678.33;1721382;82;25741;-73
2022/09/13 10:54:21;;;;;;;2.00;1.60;;;;;;;20.41;48.24;100674.78;1684975;82;27471;-74
2022/09/13 10:56:50;;;;;;;2.55;1.60;;;;;;;20.28;49.73;100661.41;1710233;82;25508;-74
2022/09/13 10:59:28;;;;;;;2.98;1.80;;;;;;;20.48;47.53;100658.74;1710415;82;25896;-74
2022/09/13 11:02:32;;;;;;;8.10;2.10;;;;;;;20.67;48.33;100658.16;1679948;85;25818;-75
2022/09/13 11:05:29;;;;;;;6.87;1.42;;;;;;;20.89;48.48;100656.99;1709962;83;25804;-74
2022/09/13 11:08:19;;;;;;;2.45;1.50;;;;;;;21.80;48.09;100660.19;1711559;82;27569;-73
2022/09/13 11:11:04;;;;;;;4.87;1.55;;;;;;;22.07;45.02;100666.11;1705152;82;25786;-74
2022/09/13 11:13:51;;;;;;;2.05;1.50;;;;;;;21.59;45.00;100657.16;1725779;82;25775;-74
2022/09/13 11:16:44;;;;;;;1.60;1.50;;;;;;;21.03;45.12;100663.33;1705023;84;25942;-73
2022/09/13 11:19:43;;;;;;;2.62;2.00;;;;;;;20.58;46.20;100676.11;1701708;82;25744;-72
2022/09/13 11:22:21;;;;;;;15.63;2.52;;;;;;;20.24;47.24;100660.11;1699008;82;27455;-77
2022/09/13 11:25:22;;;;;;;2.67;1.95;;;;;;;20.14;47.61;100670.56;1703762;83;25751;-76
2022/09/13 11:28:26;;;;;;;8.43;2.33;;;;;;;20.01;47.72;100678.16;1703638;82;25510;-76
2022/09/13 11:31:16;;;;;;;4.53;2.27;;;;;;;20.06;48.01;100678.91;1705476;83;26249;-76
2022/09/13 11:34:12;;;;;;;2.45;1.57;;;;;;;20.24;47.40;100672.94;1705566;84;25787;-73
2022/09/13 11:37:15;;;;;;;9.20;1.77;;;;;;;20.92;47.42;100668.03;1705500;84;27586;-76
2022/09/13 11:40:12;;;;;;;4.00;1.60;;;;;;;21.62;45.64;100661.37;1712639;83;25771;-75
2022/09/13 11:43:00;;;;;;;1.60;1.50;;;;;;;21.90;45.01;100655.62;1709951;82;25886;-74
2022/09/13 11:45:30;;;;;;;4.10;1.95;;;;;;;21.89;43.11;100669.86;1709863;82;26165;-73
2022/09/13 11:48:30;;;;;;;5.35;1.57;;;;;;;21.80;42.31;100671.14;1710256;82;25720;-75
2022/09/13 11:51:26;;;;;;;2.75;1.60;;;;;;;22.15;43.10;100650.29;1685634;85;27455;-76
2022/09/13 11:54:13;;;;;;;7.15;1.40;;;;;;;23.09;42.61;100650.34;1717158;82;25758;-75
2022/09/13 11:56:49;;;;;;;5.45;1.30;;;;;;;23.19;41.86;100649.86;1729695;82;25455;-75
2022/09/13 11:59:54;;;;;;;1.42;1.20;;;;;;;22.83;41.24;100647.55;1722457;82;26627;-74
2022/09/13 12:02:38;;;;;;;4.20;0.88;;;;;;;22.45;41.22;100653.90;1698506;82;25952;-77
2022/09/13 12:05:16;;;;;;;1.65;1.25;;;;;;;22.57;40.92;100643.08;1737151;81;27475;-75